sensor_id;sensor_type;location;lat;lon;timestamp;pressure;altitude;pressure_sealevel;temperature;humidity
74045;BME280;62389;51.412;5.436;2023-09-08T00:02:07;101575.91;;;18.89;88.00
74045;BME280;62389;51.412;5.436;2023-09-08T00:04:34;101569.84;;;18.87;87.92
74045;BME280;62389;51.412;5.436;2023-09-08T00:07:00;101570.16;;;18.82;88.67
74045;BME280;62389;51.412;5.436;2023-09-08T00:09:25;101571.41;;;18.77;89.63
74045;BME280;62389;51.412;5.436;2023-09-08T00:11:50;101575.00;;;18.76;89.18
74045;BME280;62389;51.412;5.436;2023-09-08T00:14:16;101577.88;;;18.73;88.93
74045;BME280;62389;51.412;5.436;2023-09-08T00:16:41;101572.00;;;18.68;89.21
74045;BME280;62389;51.412;5.436;2023-09-08T00:19:09;101577.38;;;18.66;89.56
74045;BME280;62389;51.412;5.436;2023-09-08T00:21:36;101575.69;;;18.65;89.64
74045;BME280;62389;51.412;5.436;2023-09-08T00:24:01;101576.53;;;18.66;89.49
74045;BME280;62389;51.412;5.436;2023-09-08T00:26:27;101570.41;;;18.65;89.90
74045;BME280;62389;51.412;5.436;2023-09-08T00:28:52;101573.91;;;18.66;89.67
74045;BME280;62389;51.412;5.436;2023-09-08T00:31:17;101580.16;;;18.64;89.59
74045;BME280;62389;51.412;5.436;2023-09-08T00:33:43;101576.00;;;18.60;89.91
74045;BME280;62389;51.412;5.436;2023-09-08T00:36:09;101580.84;;;18.54;89.66
74045;BME280;62389;51.412;5.436;2023-09-08T00:38:35;101581.16;;;18.49;89.81
74045;BME280;62389;51.412;5.436;2023-09-08T00:41:00;101579.75;;;18.44;91.32
74045;BME280;62389;51.412;5.436;2023-09-08T00:43:26;101579.84;;;18.42;90.82
74045;BME280;62389;51.412;5.436;2023-09-08T00:45:52;101573.81;;;18.40;90.59
74045;BME280;62389;51.412;5.436;2023-09-08T00:48:19;101572.75;;;18.43;90.56
74045;BME280;62389;51.412;5.436;2023-09-08T00:50:44;101575.31;;;18.44;90.70
74045;BME280;62389;51.412;5.436;2023-09-08T00:53:10;101573.63;;;18.43;90.19
74045;BME280;62389;51.412;5.436;2023-09-08T00:55:35;101572.97;;;18.40;89.73
74045;BME280;62389;51.412;5.436;2023-09-08T00:58:01;101572.09;;;18.39;90.23
74045;BME280;62389;51.412;5.436;2023-09-08T01:00:27;101568.69;;;18.37;90.64
74045;BME280;62389;51.412;5.436;2023-09-08T01:02:52;101566.25;;;18.34;90.77
74045;BME280;62389;51.412;5.436;2023-09-08T01:05:19;101569.88;;;18.33;91.07
74045;BME280;62389;51.412;5.436;2023-09-08T01:07:44;101571.00;;;18.29;90.97
74045;BME280;62389;51.412;5.436;2023-09-08T01:10:11;101568.53;;;18.26;90.78
74045;BME280;62389;51.412;5.436;2023-09-08T01:12:37;101568.66;;;18.24;91.12
74045;BME280;62389;51.412;5.436;2023-09-08T01:15:03;101563.47;;;18.23;91.33
74045;BME280;62389;51.412;5.436;2023-09-08T01:17:29;101572.31;;;18.22;91.64
74045;BME280;62389;51.412;5.436;2023-09-08T01:19:56;101562.91;;;18.18;91.78
74045;BME280;62389;51.412;5.436;2023-09-08T01:27:41;101571.22;;;18.11;92.04
74045;BME280;62389;51.412;5.436;2023-09-08T01:30:09;101573.97;;;18.10;91.62
74045;BME280;62389;51.412;5.436;2023-09-08T01:32:35;101573.22;;;18.08;91.45
74045;BME280;62389;51.412;5.436;2023-09-08T01:35:01;101571.50;;;18.07;92.06
74045;BME280;62389;51.412;5.436;2023-09-08T01:37:26;101566.44;;;18.04;91.99
74045;BME280;62389;51.412;5.436;2023-09-08T01:39:52;101572.75;;;18.01;92.50
74045;BME280;62389;51.412;5.436;2023-09-08T01:42:17;101566.81;;;17.98;92.10
74045;BME280;62389;51.412;5.436;2023-09-08T01:44:42;101573.31;;;17.92;91.61
74045;BME280;62389;51.412;5.436;2023-09-08T01:47:08;101565.78;;;17.86;92.18
74045;BME280;62389;51.412;5.436;2023-09-08T01:49:33;101563.34;;;17.83;93.55
74045;BME280;62389;51.412;5.436;2023-09-08T01:51:58;101564.19;;;17.83;92.72
74045;BME280;62389;51.412;5.436;2023-09-08T01:54:24;101564.19;;;17.83;93.01
74045;BME280;62389;51.412;5.436;2023-09-08T01:56:49;101564.25;;;17.82;93.05
74045;BME280;62389;51.412;5.436;2023-09-08T01:59:16;101561.72;;;17.80;93.12
74045;BME280;62389;51.412;5.436;2023-09-08T02:01:41;101567.13;;;17.79;92.96
74045;BME280;62389;51.412;5.436;2023-09-08T02:04:07;101557.50;;;17.78;92.15
74045;BME280;62389;51.412;5.436;2023-09-08T02:06:32;101555.97;;;17.74;91.89
74045;BME280;62389;51.412;5.436;2023-09-08T02:08:58;101562.22;;;17.73;92.51
74045;BME280;62389;51.412;5.436;2023-09-08T02:11:23;101558.69;;;17.72;92.67
74045;BME280;62389;51.412;5.436;2023-09-08T02:13:48;101561.41;;;17.71;93.23
74045;BME280;62389;51.412;5.436;2023-09-08T02:16:15;101563.50;;;17.66;93.23
74045;BME280;62389;51.412;5.436;2023-09-08T02:18:44;101565.28;;;17.65;93.53
74045;BME280;62389;51.412;5.436;2023-09-08T02:21:09;101560.28;;;17.60;93.69
74045;BME280;62389;51.412;5.436;2023-09-08T02:23:35;101556.13;;;17.56;93.48
74045;BME280;62389;51.412;5.436;2023-09-08T02:26:01;101555.47;;;17.53;93.69
74045;BME280;62389;51.412;5.436;2023-09-08T02:28:26;101554.63;;;17.52;94.22
74045;BME280;62389;51.412;5.436;2023-09-08T02:30:51;101554.63;;;17.52;93.40
74045;BME280;62389;51.412;5.436;2023-09-08T02:33:17;101550.25;;;17.51;93.70
74045;BME280;62389;51.412;5.436;2023-09-08T02:35:43;101551.31;;;17.49;93.66
74045;BME280;62389;51.412;5.436;2023-09-08T02:38:09;101557.63;;;17.46;94.28
74045;BME280;62389;51.412;5.436;2023-09-08T02:40:34;101551.59;;;17.44;94.39
74045;BME280;62389;51.412;5.436;2023-09-08T02:43:01;101548.28;;;17.41;93.79
74045;BME280;62389;51.412;5.436;2023-09-08T02:45:26;101549.22;;;17.40;94.28
74045;BME280;62389;51.412;5.436;2023-09-08T02:47:52;101550.19;;;17.39;94.55
74045;BME280;62389;51.412;5.436;2023-09-08T02:50:17;101553.66;;;17.39;94.21
74045;BME280;62389;51.412;5.436;2023-09-08T02:52:42;101554.50;;;17.40;94.17
74045;BME280;62389;51.412;5.436;2023-09-08T02:55:09;101557.44;;;17.35;94.57
74045;BME280;62389;51.412;5.436;2023-09-08T02:57:34;101553.28;;;17.31;94.16
74045;BME280;62389;51.412;5.436;2023-09-08T02:59:59;101553.53;;;17.26;94.61
74045;BME280;62389;51.412;5.436;2023-09-08T03:02:25;101560.84;;;17.23;94.87
74045;BME280;62389;51.412;5.436;2023-09-08T03:04:51;101554.69;;;17.22;95.28
74045;BME280;62389;51.412;5.436;2023-09-08T03:07:17;101554.69;;;17.22;95.12
74045;BME280;62389;51.412;5.436;2023-09-08T03:09:42;101552.22;;;17.19;95.11
74045;BME280;62389;51.412;5.436;2023-09-08T03:12:08;101553.19;;;17.18;95.46
74045;BME280;62389;51.412;5.436;2023-09-08T03:14:33;101554.19;;;17.16;94.51
74045;BME280;62389;51.412;5.436;2023-09-08T03:16:58;101548.91;;;17.16;95.71
74045;BME280;62389;51.412;5.436;2023-09-08T03:19:24;101546.19;;;17.17;95.75
74045;BME280;62389;51.412;5.436;2023-09-08T03:21:49;101548.84;;;17.17;95.36
74045;BME280;62389;51.412;5.436;2023-09-08T03:24:15;101550.59;;;17.17;94.88
74045;BME280;62389;51.412;5.436;2023-09-08T03:26:40;101550.69;;;17.15;95.65
74045;BME280;62389;51.412;5.436;2023-09-08T03:29:06;101552.59;;;17.13;95.51
74045;BME280;62389;51.412;5.436;2023-09-08T03:31:31;101550.03;;;17.12;95.97
74045;BME280;62389;51.412;5.436;2023-09-08T03:33:57;101549.28;;;17.09;95.83
74045;BME280;62389;51.412;5.436;2023-09-08T03:36:22;101550.34;;;17.07;96.17
74045;BME280;62389;51.412;5.436;2023-09-08T03:38:48;101540.69;;;17.06;95.91
74045;BME280;62389;51.412;5.436;2023-09-08T03:41:14;101543.41;;;17.04;95.51
74045;BME280;62389;51.412;5.436;2023-09-08T03:43:39;101547.97;;;17.02;95.69
74045;BME280;62389;51.412;5.436;2023-09-08T03:46:05;101537.38;;;17.02;95.62
74045;BME280;62389;51.412;5.436;2023-09-08T03:48:30;101541.91;;;17.00;95.68
74045;BME280;62389;51.412;5.436;2023-09-08T03:50:55;101547.19;;;17.00;96.40
74045;BME280;62389;51.412;5.436;2023-09-08T03:53:21;101543.78;;;16.98;96.64
74045;BME280;62389;51.412;5.436;2023-09-08T03:55:46;101543.00;;;16.96;96.85
74045;BME280;62389;51.412;5.436;2023-09-08T03:58:12;101539.53;;;16.96;96.18
74045;BME280;62389;51.412;5.436;2023-09-08T04:00:37;101543.97;;;16.95;95.99
74045;BME280;62389;51.412;5.436;2023-09-08T04:03:03;101548.50;;;16.93;96.67
74045;BME280;62389;51.412;5.436;2023-09-08T04:05:28;101543.38;;;16.90;96.46
74045;BME280;62389;51.412;5.436;2023-09-08T04:07:54;101539.03;;;16.89;96.44
74045;BME280;62389;51.412;5.436;2023-09-08T04:10:19;101541.78;;;16.88;96.35
74045;BME280;62389;51.412;5.436;2023-09-08T04:12:45;101540.84;;;16.89;96.80
74045;BME280;62389;51.412;5.436;2023-09-08T04:15:10;101535.72;;;16.86;97.15
74045;BME280;62389;51.412;5.436;2023-09-08T04:17:37;101527.16;;;16.82;97.75
74045;BME280;62389;51.412;5.436;2023-09-08T04:20:05;101536.84;;;16.81;96.91
74045;BME280;62389;51.412;5.436;2023-09-08T04:22:32;101541.38;;;16.79;96.75
74045;BME280;62389;51.412;5.436;2023-09-08T04:24:57;101535.50;;;16.74;96.21
74045;BME280;62389;51.412;5.436;2023-09-08T04:27:23;101539.94;;;16.74;97.13
74045;BME280;62389;51.412;5.436;2023-09-08T04:29:49;101535.69;;;16.71;97.43
74045;BME280;62389;51.412;5.436;2023-09-08T04:32:14;101531.28;;;16.72;97.12
74045;BME280;62389;51.412;5.436;2023-09-08T04:34:41;101531.41;;;16.69;97.47
74045;BME280;62389;51.412;5.436;2023-09-08T04:37:07;101531.56;;;16.66;98.13
74045;BME280;62389;51.412;5.436;2023-09-08T04:39:33;101530.81;;;16.64;98.44
74045;BME280;62389;51.412;5.436;2023-09-08T04:41:59;101537.97;;;16.62;98.24
74045;BME280;62389;51.412;5.436;2023-09-08T04:44:24;101531.94;;;16.60;98.95
74045;BME280;62389;51.412;5.436;2023-09-08T04:46:51;101525.91;;;16.57;98.65
74045;BME280;62389;51.412;5.436;2023-09-08T04:49:17;101533.03;;;16.55;98.58
74045;BME280;62389;51.412;5.436;2023-09-08T04:51:43;101534.84;;;16.55;98.61
74045;BME280;62389;51.412;5.436;2023-09-08T04:54:08;101537.38;;;16.56;98.58
74045;BME280;62389;51.412;5.436;2023-09-08T04:56:33;101542.50;;;16.60;98.46
74045;BME280;62389;51.412;5.436;2023-09-08T04:58:59;101538.16;;;16.58;99.16
74045;BME280;62389;51.412;5.436;2023-09-08T05:01:29;101536.38;;;16.59;98.43
74045;BME280;62389;51.412;5.436;2023-09-08T05:03:58;101538.06;;;16.60;98.44
74045;BME280;62389;51.412;5.436;2023-09-08T05:06:27;101546.84;;;16.61;98.31
74045;BME280;62389;51.412;5.436;2023-09-08T05:08:52;101543.25;;;16.62;98.56
74045;BME280;62389;51.412;5.436;2023-09-08T05:11:18;101542.50;;;16.60;99.12
74045;BME280;62389;51.412;5.436;2023-09-08T05:13:45;101546.19;;;16.57;98.60
74045;BME280;62389;51.412;5.436;2023-09-08T05:16:11;101540.03;;;16.56;98.69
74045;BME280;62389;51.412;5.436;2023-09-08T05:18:40;101540.22;;;16.53;98.37
74045;BME280;62389;51.412;5.436;2023-09-08T05:21:06;101550.78;;;16.53;98.50
74045;BME280;62389;51.412;5.436;2023-09-08T05:23:32;101548.31;;;16.50;98.57
74045;BME280;62389;51.412;5.436;2023-09-08T05:25:58;101552.63;;;16.51;99.40
74045;BME280;62389;51.412;5.436;2023-09-08T05:28:23;101544.72;;;16.51;98.84
74045;BME280;62389;51.412;5.436;2023-09-08T05:30:52;101558.81;;;16.52;99.70
74045;BME280;62389;51.412;5.436;2023-09-08T05:33:18;101563.97;;;16.53;99.59
74045;BME280;62389;51.412;5.436;2023-09-08T05:35:44;101562.28;;;16.52;99.43
74045;BME280;62389;51.412;5.436;2023-09-08T05:38:10;101557.84;;;16.53;99.72
74045;BME280;62389;51.412;5.436;2023-09-08T05:40:35;101560.31;;;16.56;99.48
74045;BME280;62389;51.412;5.436;2023-09-08T05:43:01;101562.03;;;16.57;99.81
74045;BME280;62389;51.412;5.436;2023-09-08T05:45:27;101561.94;;;16.58;99.81
74045;BME280;62389;51.412;5.436;2023-09-08T05:47:52;101557.41;;;16.61;99.79
74045;BME280;62389;51.412;5.436;2023-09-08T05:50:18;101566.09;;;16.63;99.76
74045;BME280;62389;51.412;5.436;2023-09-08T05:52:43;101550.25;;;16.63;99.76
74045;BME280;62389;51.412;5.436;2023-09-08T05:55:09;101554.59;;;16.64;99.46
74045;BME280;62389;51.412;5.436;2023-09-08T05:57:34;101560.81;;;16.63;100.00
74045;BME280;62389;51.412;5.436;2023-09-08T06:00:02;101559.03;;;16.63;99.73
74045;BME280;62389;51.412;5.436;2023-09-08T06:02:27;101553.66;;;16.65;100.00
74045;BME280;62389;51.412;5.436;2023-09-08T06:04:52;101561.56;;;16.65;100.00
74045;BME280;62389;51.412;5.436;2023-09-08T06:07:18;101566.00;;;16.64;100.00
74045;BME280;62389;51.412;5.436;2023-09-08T06:09:43;101562.34;;;16.67;100.00
74045;BME280;62389;51.412;5.436;2023-09-08T06:12:08;101567.38;;;16.71;100.00
74045;BME280;62389;51.412;5.436;2023-09-08T06:14:34;101570.78;;;16.73;100.00
74045;BME280;62389;51.412;5.436;2023-09-08T06:16:59;101567.09;;;16.76;100.00
74045;BME280;62389;51.412;5.436;2023-09-08T06:19:24;101571.28;;;16.80;100.00
74045;BME280;62389;51.412;5.436;2023-09-08T06:21:50;101569.41;;;16.82;100.00
74045;BME280;62389;51.412;5.436;2023-09-08T06:24:15;101578.09;;;16.84;100.00
74045;BME280;62389;51.412;5.436;2023-09-08T06:26:40;101575.28;;;16.87;100.00
74045;BME280;62389;51.412;5.436;2023-09-08T06:29:07;101574.13;;;16.91;100.00
74045;BME280;62389;51.412;5.436;2023-09-08T06:31:33;101580.22;;;16.93;100.00
74045;BME280;62389;51.412;5.436;2023-09-08T06:33:58;101572.09;;;16.96;100.00
74045;BME280;62389;51.412;5.436;2023-09-08T06:36:23;101574.47;;;17.01;100.00
74045;BME280;62389;51.412;5.436;2023-09-08T06:38:49;101566.25;;;17.05;100.00
74045;BME280;62389;51.412;5.436;2023-09-08T06:41:14;101576.75;;;17.07;100.00
74045;BME280;62389;51.412;5.436;2023-09-08T06:43:39;101569.47;;;17.11;100.00
74045;BME280;62389;51.412;5.436;2023-09-08T06:46:05;101578.94;;;17.15;100.00
74045;BME280;62389;51.412;5.436;2023-09-08T06:48:30;101580.47;;;17.19;100.00
74045;BME280;62389;51.412;5.436;2023-09-08T06:50:56;101575.84;;;17.22;100.00
74045;BME280;62389;51.412;5.436;2023-09-08T06:53:23;101579.91;;;17.28;100.00
74045;BME280;62389;51.412;5.436;2023-09-08T06:55:48;101578.78;;;17.32;100.00
74045;BME280;62389;51.412;5.436;2023-09-08T06:58:14;101572.44;;;17.34;100.00
74045;BME280;62389;51.412;5.436;2023-09-08T07:00:42;101589.84;;;17.39;100.00
74045;BME280;62389;51.412;5.436;2023-09-08T07:03:08;101582.59;;;17.42;100.00
74045;BME280;62389;51.412;5.436;2023-09-08T07:05:39;101586.72;;;17.46;100.00
74045;BME280;62389;51.412;5.436;2023-09-08T07:08:04;101582.94;;;17.50;100.00
74045;BME280;62389;51.412;5.436;2023-09-08T07:10:31;101582.56;;;17.56;100.00
74045;BME280;62389;51.412;5.436;2023-09-08T07:12:57;101576.91;;;17.63;100.00
74045;BME280;62389;51.412;5.436;2023-09-08T07:15:22;101576.53;;;17.69;100.00
74045;BME280;62389;51.412;5.436;2023-09-08T07:17:47;101582.44;;;17.74;100.00
74045;BME280;62389;51.412;5.436;2023-09-08T07:20:13;101583.84;;;17.79;100.00
74045;BME280;62389;51.412;5.436;2023-09-08T07:22:38;101577.31;;;17.85;100.00
74045;BME280;62389;51.412;5.436;2023-09-08T07:25:04;101590.16;;;17.91;100.00
74045;BME280;62389;51.412;5.436;2023-09-08T07:27:29;101583.63;;;17.97;100.00
74045;BME280;62389;51.412;5.436;2023-09-08T07:29:55;101586.75;;;18.03;100.00
74045;BME280;62389;51.412;5.436;2023-09-08T07:32:20;101588.16;;;18.09;100.00
74045;BME280;62389;51.412;5.436;2023-09-08T07:34:47;101592.22;;;18.15;100.00
74045;BME280;62389;51.412;5.436;2023-09-08T07:37:20;101588.97;;;18.24;100.00
74045;BME280;62389;51.412;5.436;2023-09-08T07:39:45;101587.34;;;18.35;100.00
74045;BME280;62389;51.412;5.436;2023-09-08T07:42:11;101591.63;;;18.51;99.00
74045;BME280;62389;51.412;5.436;2023-09-08T07:44:36;101588.00;;;18.66;98.68
74045;BME280;62389;51.412;5.436;2023-09-08T07:47:02;101586.56;;;18.75;98.62
74045;BME280;62389;51.412;5.436;2023-09-08T07:49:27;101585.97;;;18.84;98.80
74045;BME280;62389;51.412;5.436;2023-09-08T07:51:53;101591.50;;;18.94;98.58
74045;BME280;62389;51.412;5.436;2023-09-08T07:54:18;101581.34;;;19.00;99.65
74045;BME280;62389;51.412;5.436;2023-09-08T07:56:43;101574.47;;;19.10;97.32
74045;BME280;62389;51.412;5.436;2023-09-08T07:59:09;101574.91;;;19.30;98.74
74045;BME280;62389;51.412;5.436;2023-09-08T08:01:34;101571.50;;;19.53;99.88
74045;BME280;62389;51.412;5.436;2023-09-08T08:03:59;101580.66;;;19.75;96.82
74045;BME280;62389;51.412;5.436;2023-09-08T08:06:26;101571.13;;;20.09;97.13
74045;BME280;62389;51.412;5.436;2023-09-08T08:08:52;101568.28;;;20.84;95.37
74045;BME280;62389;51.412;5.436;2023-09-08T08:11:17;101570.16;;;21.86;89.78
74045;BME280;62389;51.412;5.436;2023-09-08T08:13:43;101574.03;;;22.91;87.59
74045;BME280;62389;51.412;5.436;2023-09-08T08:16:09;101569.22;;;23.88;83.46
74045;BME280;62389;51.412;5.436;2023-09-08T08:18:34;101565.00;;;24.84;77.83
74045;BME280;62389;51.412;5.436;2023-09-08T08:21:00;101565.09;;;25.68;76.39
74045;BME280;62389;51.412;5.436;2023-09-08T08:23:26;101566.09;;;26.67;69.94
74045;BME280;62389;51.412;5.436;2023-09-08T08:25:51;101568.06;;;27.53;63.53
74045;BME280;62389;51.412;5.436;2023-09-08T08:28:17;101569.09;;;28.61;60.17
74045;BME280;62389;51.412;5.436;2023-09-08T08:30:42;101566.78;;;29.71;56.09
74045;BME280;62389;51.412;5.436;2023-09-08T08:33:08;101570.94;;;30.66;50.78
74045;BME280;62389;51.412;5.436;2023-09-08T08:35:33;101569.34;;;31.77;52.98
74045;BME280;62389;51.412;5.436;2023-09-08T08:37:59;101573.84;;;33.07;45.30
74045;BME280;62389;51.412;5.436;2023-09-08T08:40:25;101575.06;;;34.01;44.60
74045;BME280;62389;51.412;5.436;2023-09-08T08:43:01;101575.84;;;35.03;45.42
74045;BME280;62389;51.412;5.436;2023-09-08T08:45:27;101573.13;;;35.88;39.95
74045;BME280;62389;51.412;5.436;2023-09-08T08:47:54;101569.38;;;36.59;36.70
74045;BME280;62389;51.412;5.436;2023-09-08T08:50:21;101572.09;;;37.08;36.92
74045;BME280;62389;51.412;5.436;2023-09-08T08:52:46;101571.84;;;37.53;34.03
74045;BME280;62389;51.412;5.436;2023-09-08T08:55:12;101573.59;;;38.15;33.80
74045;BME280;62389;51.412;5.436;2023-09-08T08:57:40;101562.50;;;38.81;32.13
74045;BME280;62389;51.412;5.436;2023-09-08T09:00:09;101566.16;;;39.34;40.12
74045;BME280;62389;51.412;5.436;2023-09-08T09:02:37;101566.25;;;39.91;38.95
74045;BME280;62389;51.412;5.436;2023-09-08T09:05:04;101569.69;;;39.98;30.94
74045;BME280;62389;51.412;5.436;2023-09-08T09:07:31;101573.50;;;40.26;30.84
74045;BME280;62389;51.412;5.436;2023-09-08T09:09:57;101579.94;;;40.48;29.08
74045;BME280;62389;51.412;5.436;2023-09-08T09:12:23;101560.22;;;40.06;27.59
74045;BME280;62389;51.412;5.436;2023-09-08T09:14:52;101565.28;;;39.57;29.00
74045;BME280;62389;51.412;5.436;2023-09-08T09:17:18;101565.13;;;39.23;29.05
74045;BME280;62389;51.412;5.436;2023-09-08T09:19:43;101564.03;;;39.01;29.77
74045;BME280;62389;51.412;5.436;2023-09-08T09:22:09;101569.88;;;39.28;31.36
74045;BME280;62389;51.412;5.436;2023-09-08T09:24:41;101566.13;;;39.46;31.48
74045;BME280;62389;51.412;5.436;2023-09-08T09:27:09;101571.97;;;39.49;28.99
74045;BME280;62389;51.412;5.436;2023-09-08T09:29:49;101575.09;;;39.29;32.65
74045;BME280;62389;51.412;5.436;2023-09-08T09:32:16;101568.13;;;38.15;31.46
74045;BME280;62389;51.412;5.436;2023-09-08T09:34:51;101570.31;;;36.39;33.30
74045;BME280;62389;51.412;5.436;2023-09-08T09:37:22;101573.25;;;34.42;36.40
74045;BME280;62389;51.412;5.436;2023-09-08T09:39:52;101576.38;;;32.59;39.76
74045;BME280;62389;51.412;5.436;2023-09-08T09:42:18;101566.78;;;31.84;44.40
74045;BME280;62389;51.412;5.436;2023-09-08T09:44:47;101565.19;;;31.30;42.65
74045;BME280;62389;51.412;5.436;2023-09-08T09:47:13;101570.50;;;31.01;49.12
74045;BME280;62389;51.412;5.436;2023-09-08T09:49:47;101568.16;;;30.60;47.50
74045;BME280;62389;51.412;5.436;2023-09-08T09:52:14;101566.84;;;30.33;48.54
74045;BME280;62389;51.412;5.436;2023-09-08T09:54:43;101568.84;;;30.00;48.30
74045;BME280;62389;51.412;5.436;2023-09-08T09:57:13;101570.63;;;29.76;48.55
74045;BME280;62389;51.412;5.436;2023-09-08T09:59:40;101573.22;;;29.53;50.48
74045;BME280;62389;51.412;5.436;2023-09-08T10:02:14;101560.47;;;29.39;49.99
74045;BME280;62389;51.412;5.436;2023-09-08T10:04:40;101558.47;;;29.16;51.10
74045;BME280;62389;51.412;5.436;2023-09-08T10:07:06;101562.56;;;29.04;52.45
74045;BME280;62389;51.412;5.436;2023-09-08T10:09:32;101566.06;;;28.88;51.23
74045;BME280;62389;51.412;5.436;2023-09-08T10:12:01;101563.38;;;28.80;51.67
74045;BME280;62389;51.412;5.436;2023-09-08T10:14:28;101562.22;;;28.83;54.29
74045;BME280;62389;51.412;5.436;2023-09-08T10:16:54;101565.75;;;28.83;52.18
74045;BME280;62389;51.412;5.436;2023-09-08T10:19:22;101568.09;;;28.70;51.26
74045;BME280;62389;51.412;5.436;2023-09-08T10:21:48;101566.09;;;28.72;52.74
74045;BME280;62389;51.412;5.436;2023-09-08T10:24:22;101570.63;;;28.72;55.14
74045;BME280;62389;51.412;5.436;2023-09-08T10:27:11;101562.72;;;28.78;52.79
74045;BME280;62389;51.412;5.436;2023-09-08T10:29:38;101569.94;;;28.70;52.41
74045;BME280;62389;51.412;5.436;2023-09-08T10:32:05;101560.72;;;28.72;55.61
74045;BME280;62389;51.412;5.436;2023-09-08T10:34:33;101556.50;;;28.78;54.10
74045;BME280;62389;51.412;5.436;2023-09-08T10:36:58;101560.53;;;28.82;53.42
74045;BME280;62389;51.412;5.436;2023-09-08T10:47:25;101552.94;;;29.02;54.81
74045;BME280;62389;51.412;5.436;2023-09-08T10:49:51;101550.63;;;29.07;52.60
74045;BME280;62389;51.412;5.436;2023-09-08T10:52:21;101553.31;;;29.07;51.29
74045;BME280;62389;51.412;5.436;2023-09-08T10:54:49;101544.88;;;29.10;53.22
74045;BME280;62389;51.412;5.436;2023-09-08T10:57:15;101550.94;;;29.12;54.62
74045;BME280;62389;51.412;5.436;2023-09-08T10:59:58;101558.16;;;29.11;53.77
74045;BME280;62389;51.412;5.436;2023-09-08T11:02:58;101548.56;;;29.17;54.32
74045;BME280;62389;51.412;5.436;2023-09-08T11:05:25;101548.84;;;29.30;56.86
74045;BME280;62389;51.412;5.436;2023-09-08T11:07:51;101550.53;;;29.39;55.37
74045;BME280;62389;51.412;5.436;2023-09-08T11:10:18;101542.09;;;29.42;57.00
74045;BME280;62389;51.412;5.436;2023-09-08T11:12:43;101545.78;;;29.41;53.87
74045;BME280;62389;51.412;5.436;2023-09-08T11:15:09;101541.94;;;29.36;51.45
74045;BME280;62389;51.412;5.436;2023-09-08T11:17:37;101546.84;;;29.32;52.34
74045;BME280;62389;51.412;5.436;2023-09-08T11:20:07;101546.50;;;29.35;51.73
74045;BME280;62389;51.412;5.436;2023-09-08T11:22:34;101546.66;;;29.34;53.32
74045;BME280;62389;51.412;5.436;2023-09-08T11:25:00;101538.25;;;29.37;54.91
74045;BME280;62389;51.412;5.436;2023-09-08T11:27:27;101545.97;;;29.40;52.64
74045;BME280;62389;51.412;5.436;2023-09-08T11:29:54;101539.72;;;29.48;53.82
74045;BME280;62389;51.412;5.436;2023-09-08T11:32:19;101539.38;;;29.51;52.80
74045;BME280;62389;51.412;5.436;2023-09-08T11:34:45;101534.50;;;29.54;54.32
74045;BME280;62389;51.412;5.436;2023-09-08T11:37:12;101533.81;;;29.60;56.89
74045;BME280;62389;51.412;5.436;2023-09-08T11:39:39;101529.56;;;29.66;55.16
74045;BME280;62389;51.412;5.436;2023-09-08T11:42:06;101528.00;;;29.72;55.87
74045;BME280;62389;51.412;5.436;2023-09-08T11:44:33;101526.31;;;29.79;53.17
74045;BME280;62389;51.412;5.436;2023-09-08T11:46:59;101530.16;;;29.84;55.37
74045;BME280;62389;51.412;5.436;2023-09-08T11:49:25;101533.16;;;29.89;53.67
74045;BME280;62389;51.412;5.436;2023-09-08T11:51:51;101531.81;;;29.93;54.98
74045;BME280;62389;51.412;5.436;2023-09-08T11:54:17;101528.50;;;30.06;55.70
74045;BME280;62389;51.412;5.436;2023-09-08T11:56:42;101530.97;;;30.24;54.46
74045;BME280;62389;51.412;5.436;2023-09-08T11:59:08;101532.22;;;30.36;51.60
74045;BME280;62389;51.412;5.436;2023-09-08T12:01:34;101528.31;;;30.39;54.47
74045;BME280;62389;51.412;5.436;2023-09-08T12:04:00;101535.69;;;30.68;53.91
74045;BME280;62389;51.412;5.436;2023-09-08T12:06:26;101531.81;;;30.71;53.89
74045;BME280;62389;51.412;5.436;2023-09-08T12:08:56;101531.66;;;30.64;49.91
74045;BME280;62389;51.412;5.436;2023-09-08T12:11:21;101514.88;;;30.54;48.71
74045;BME280;62389;51.412;5.436;2023-09-08T12:13:47;101527.25;;;30.48;48.45
74045;BME280;62389;51.412;5.436;2023-09-08T12:16:19;101523.72;;;30.48;49.77
74045;BME280;62389;51.412;5.436;2023-09-08T12:18:45;101527.41;;;30.47;48.59
74045;BME280;62389;51.412;5.436;2023-09-08T12:21:10;101524.72;;;30.47;49.19
74045;BME280;62389;51.412;5.436;2023-09-08T12:23:50;101526.75;;;30.44;49.39
74045;BME280;62389;51.412;5.436;2023-09-08T12:26:16;101523.03;;;30.46;53.65
74045;BME280;62389;51.412;5.436;2023-09-08T12:28:42;101525.72;;;30.46;50.16
74045;BME280;62389;51.412;5.436;2023-09-08T12:31:08;101521.84;;;30.48;49.37
74045;BME280;62389;51.412;5.436;2023-09-08T12:33:34;101526.75;;;30.44;51.89
74045;BME280;62389;51.412;5.436;2023-09-08T12:36:00;101524.56;;;30.48;55.61
74045;BME280;62389;51.412;5.436;2023-09-08T12:38:34;101519.59;;;30.52;50.99
74045;BME280;62389;51.412;5.436;2023-09-08T12:41:00;101521.75;;;30.56;50.68
74045;BME280;62389;51.412;5.436;2023-09-08T12:43:25;101519.53;;;30.60;52.03
74045;BME280;62389;51.412;5.436;2023-09-08T12:45:50;101528.44;;;30.68;48.90
74045;BME280;62389;51.412;5.436;2023-09-08T12:48:16;101520.47;;;30.67;51.78
74045;BME280;62389;51.412;5.436;2023-09-08T12:50:41;101518.59;;;30.76;49.62
74045;BME280;62389;51.412;5.436;2023-09-08T12:53:06;101520.19;;;30.85;50.71
74045;BME280;62389;51.412;5.436;2023-09-08T12:55:32;101512.94;;;30.85;51.60
74045;BME280;62389;51.412;5.436;2023-09-08T12:57:57;101516.66;;;30.84;49.10